sensor_id;sensor_type;location;lat;lon;timestamp;P1;durP1;ratioP1;P2;durP2;ratioP2
71496;SDS011;59317;53.218;5.730;2022-11-24T00:00:33;21.80;;;5.50;;
71496;SDS011;59317;53.218;5.730;2022-11-24T00:02:59;20.63;;;5.17;;
71496;SDS011;59317;53.218;5.730;2022-11-24T00:05:25;20.67;;;4.90;;
71496;SDS011;59317;53.218;5.730;2022-11-24T00:07:51;23.13;;;5.60;;
71496;SDS011;59317;53.218;5.730;2022-11-24T00:10:17;24.40;;;5.50;;
71496;SDS011;59317;53.218;5.730;2022-11-24T00:12:43;21.88;;;5.07;;
71496;SDS011;59317;53.218;5.730;2022-11-24T00:15:09;23.83;;;5.38;;
71496;SDS011;59317;53.218;5.730;2022-11-24T00:17:35;18.67;;;4.78;;
71496;SDS011;59317;53.218;5.730;2022-11-24T00:20:01;22.92;;;4.95;;
71496;SDS011;59317;53.218;5.730;2022-11-24T00:22:27;24.92;;;5.32;;
71496;SDS011;59317;53.218;5.730;2022-11-24T00:24:53;22.17;;;5.03;;
71496;SDS011;59317;53.218;5.730;2022-11-24T00:27:19;24.08;;;4.80;;
71496;SDS011;59317;53.218;5.730;2022-11-24T00:29:45;25.63;;;5.30;;
71496;SDS011;59317;53.218;5.730;2022-11-24T00:32:11;27.17;;;4.93;;
71496;SDS011;59317;53.218;5.730;2022-11-24T00:34:37;24.13;;;4.90;;
71496;SDS011;59317;53.218;5.730;2022-11-24T00:37:04;26.15;;;5.40;;
71496;SDS011;59317;53.218;5.730;2022-11-24T00:39:30;24.80;;;4.70;;
71496;SDS011;59317;53.218;5.730;2022-11-24T00:41:56;25.88;;;5.70;;
71496;SDS011;59317;53.218;5.730;2022-11-24T00:44:22;25.33;;;5.30;;
71496;SDS011;59317;53.218;5.730;2022-11-24T00:46:48;21.20;;;4.35;;
71496;SDS011;59317;53.218;5.730;2022-11-24T00:49:14;24.40;;;4.80;;
71496;SDS011;59317;53.218;5.730;2022-11-24T00:51:40;27.08;;;4.82;;
71496;SDS011;59317;53.218;5.730;2022-11-24T00:54:06;21.50;;;4.65;;
71496;SDS011;59317;53.218;5.730;2022-11-24T00:56:32;25.20;;;4.45;;
71496;SDS011;59317;53.218;5.730;2022-11-24T00:58:58;22.80;;;4.20;;
71496;SDS011;59317;53.218;5.730;2022-11-24T01:01:26;24.80;;;4.30;;
71496;SDS011;59317;53.218;5.730;2022-11-24T01:03:52;24.38;;;4.03;;
71496;SDS011;59317;53.218;5.730;2022-11-24T01:06:22;30.65;;;4.43;;
71496;SDS011;59317;53.218;5.730;2022-11-24T01:08:48;25.10;;;4.37;;
71496;SDS011;59317;53.218;5.730;2022-11-24T01:11:18;22.05;;;3.78;;
71496;SDS011;59317;53.218;5.730;2022-11-24T01:13:45;19.90;;;4.20;;
71496;SDS011;59317;53.218;5.730;2022-11-24T01:16:12;21.67;;;3.42;;
71496;SDS011;59317;53.218;5.730;2022-11-24T01:18:39;22.15;;;4.03;;
71496;SDS011;59317;53.218;5.730;2022-11-24T01:21:05;21.75;;;3.50;;
71496;SDS011;59317;53.218;5.730;2022-11-24T01:23:31;19.75;;;3.40;;
71496;SDS011;59317;53.218;5.730;2022-11-24T01:25:57;26.15;;;3.83;;
71496;SDS011;59317;53.218;5.730;2022-11-24T01:28:23;22.75;;;3.28;;
71496;SDS011;59317;53.218;5.730;2022-11-24T01:30:56;21.30;;;3.70;;
71496;SDS011;59317;53.218;5.730;2022-11-24T01:33:22;22.23;;;3.25;;
71496;SDS011;59317;53.218;5.730;2022-11-24T01:35:48;21.40;;;3.17;;
71496;SDS011;59317;53.218;5.730;2022-11-24T01:38:14;22.53;;;3.90;;
71496;SDS011;59317;53.218;5.730;2022-11-24T01:40:40;26.17;;;3.40;;
71496;SDS011;59317;53.218;5.730;2022-11-24T01:43:16;22.53;;;3.40;;
71496;SDS011;59317;53.218;5.730;2022-11-24T01:45:42;20.13;;;3.10;;
71496;SDS011;59317;53.218;5.730;2022-11-24T01:48:28;20.10;;;3.20;;
71496;SDS011;59317;53.218;5.730;2022-11-24T01:51:02;19.92;;;2.90;;
71496;SDS011;59317;53.218;5.730;2022-11-24T01:53:30;23.48;;;3.22;;
71496;SDS011;59317;53.218;5.730;2022-11-24T01:55:56;21.27;;;3.05;;
71496;SDS011;59317;53.218;5.730;2022-11-24T01:58:23;18.23;;;2.92;;
71496;SDS011;59317;53.218;5.730;2022-11-24T02:00:51;24.35;;;3.03;;
71496;SDS011;59317;53.218;5.730;2022-11-24T02:03:19;15.73;;;2.67;;
71496;SDS011;59317;53.218;5.730;2022-11-24T02:05:54;20.50;;;2.75;;
71496;SDS011;59317;53.218;5.730;2022-11-24T02:08:27;19.50;;;3.05;;
71496;SDS011;59317;53.218;5.730;2022-11-24T02:10:54;18.40;;;3.00;;
71496;SDS011;59317;53.218;5.730;2022-11-24T02:13:21;17.10;;;2.92;;
71496;SDS011;59317;53.218;5.730;2022-11-24T02:15:47;18.92;;;2.90;;
71496;SDS011;59317;53.218;5.730;2022-11-24T02:18:13;17.42;;;2.70;;
71496;SDS011;59317;53.218;5.730;2022-11-24T02:20:39;19.45;;;2.53;;
71496;SDS011;59317;53.218;5.730;2022-11-24T02:23:14;17.88;;;2.58;;
71496;SDS011;59317;53.218;5.730;2022-11-24T02:28:15;18.58;;;2.40;;
71496;SDS011;59317;53.218;5.730;2022-11-24T02:30:41;18.88;;;2.45;;
71496;SDS011;59317;53.218;5.730;2022-11-24T02:33:08;18.58;;;2.97;;
71496;SDS011;59317;53.218;5.730;2022-11-24T02:35:35;16.33;;;2.40;;
71496;SDS011;59317;53.218;5.730;2022-11-24T02:38:01;17.30;;;2.20;;
71496;SDS011;59317;53.218;5.730;2022-11-24T02:40:27;17.27;;;2.63;;
71496;SDS011;59317;53.218;5.730;2022-11-24T02:43:03;18.52;;;2.65;;
71496;SDS011;59317;53.218;5.730;2022-11-24T02:45:29;13.75;;;2.20;;
71496;SDS011;59317;53.218;5.730;2022-11-24T02:47:56;17.33;;;2.35;;
71496;SDS011;59317;53.218;5.730;2022-11-24T02:50:22;14.40;;;2.37;;
71496;SDS011;59317;53.218;5.730;2022-11-24T02:52:48;17.85;;;2.40;;
71496;SDS011;59317;53.218;5.730;2022-11-24T02:55:14;15.23;;;2.20;;
71496;SDS011;59317;53.218;5.730;2022-11-24T02:57:40;14.33;;;2.30;;
71496;SDS011;59317;53.218;5.730;2022-11-24T03:00:06;17.27;;;2.50;;
71496;SDS011;59317;53.218;5.730;2022-11-24T03:02:32;19.65;;;2.42;;
71496;SDS011;59317;53.218;5.730;2022-11-24T03:04:58;18.42;;;3.03;;
71496;SDS011;59317;53.218;5.730;2022-11-24T03:07:24;16.45;;;2.25;;
71496;SDS011;59317;53.218;5.730;2022-11-24T03:09:50;17.60;;;2.60;;
71496;SDS011;59317;53.218;5.730;2022-11-24T03:12:16;18.80;;;2.57;;
71496;SDS011;59317;53.218;5.730;2022-11-24T03:14:42;16.07;;;2.77;;
71496;SDS011;59317;53.218;5.730;2022-11-24T03:17:08;18.30;;;2.37;;
71496;SDS011;59317;53.218;5.730;2022-11-24T03:19:34;17.97;;;2.77;;
71496;SDS011;59317;53.218;5.730;2022-11-24T03:22:00;15.95;;;2.33;;
71496;SDS011;59317;53.218;5.730;2022-11-24T03:24:26;18.58;;;2.80;;
71496;SDS011;59317;53.218;5.730;2022-11-24T03:26:52;21.15;;;2.60;;
71496;SDS011;59317;53.218;5.730;2022-11-24T03:29:18;20.23;;;2.58;;
71496;SDS011;59317;53.218;5.730;2022-11-24T03:31:44;21.17;;;2.88;;
71496;SDS011;59317;53.218;5.730;2022-11-24T03:34:10;16.90;;;2.08;;
71496;SDS011;59317;53.218;5.730;2022-11-24T03:36:36;17.58;;;2.60;;
71496;SDS011;59317;53.218;5.730;2022-11-24T03:39:02;17.48;;;2.30;;
71496;SDS011;59317;53.218;5.730;2022-11-24T03:41:28;17.02;;;2.58;;
71496;SDS011;59317;53.218;5.730;2022-11-24T03:43:54;19.15;;;2.65;;
71496;SDS011;59317;53.218;5.730;2022-11-24T03:46:20;16.92;;;2.75;;
71496;SDS011;59317;53.218;5.730;2022-11-24T03:48:46;18.10;;;2.97;;
71496;SDS011;59317;53.218;5.730;2022-11-24T03:51:12;15.98;;;2.20;;
71496;SDS011;59317;53.218;5.730;2022-11-24T03:53:39;26.30;;;2.90;;
71496;SDS011;59317;53.218;5.730;2022-11-24T03:56:05;18.60;;;2.30;;
71496;SDS011;59317;53.218;5.730;2022-11-24T03:58:31;17.33;;;2.20;;
71496;SDS011;59317;53.218;5.730;2022-11-24T04:00:57;18.85;;;2.33;;
71496;SDS011;59317;53.218;5.730;2022-11-24T04:03:24;18.20;;;2.70;;
71496;SDS011;59317;53.218;5.730;2022-11-24T04:05:50;20.50;;;2.85;;
71496;SDS011;59317;53.218;5.730;2022-11-24T04:08:16;19.58;;;2.65;;
71496;SDS011;59317;53.218;5.730;2022-11-24T04:10:42;18.63;;;2.42;;
71496;SDS011;59317;53.218;5.730;2022-11-24T04:13:12;17.55;;;2.33;;
71496;SDS011;59317;53.218;5.730;2022-11-24T04:15:39;18.75;;;2.60;;
71496;SDS011;59317;53.218;5.730;2022-11-24T04:18:05;18.25;;;2.15;;
71496;SDS011;59317;53.218;5.730;2022-11-24T04:20:31;18.45;;;2.63;;
71496;SDS011;59317;53.218;5.730;2022-11-24T04:22:57;15.13;;;2.23;;
71496;SDS011;59317;53.218;5.730;2022-11-24T04:25:23;15.40;;;2.30;;
71496;SDS011;59317;53.218;5.730;2022-11-24T04:27:50;19.35;;;2.47;;
71496;SDS011;59317;53.218;5.730;2022-11-24T04:30:18;20.88;;;2.67;;
71496;SDS011;59317;53.218;5.730;2022-11-24T04:32:44;17.10;;;2.47;;
71496;SDS011;59317;53.218;5.730;2022-11-24T04:35:10;18.30;;;2.38;;
71496;SDS011;59317;53.218;5.730;2022-11-24T04:37:36;17.35;;;2.30;;
71496;SDS011;59317;53.218;5.730;2022-11-24T04:40:02;16.52;;;2.58;;
71496;SDS011;59317;53.218;5.730;2022-11-24T04:42:29;17.85;;;2.30;;
71496;SDS011;59317;53.218;5.730;2022-11-24T04:44:55;15.30;;;2.40;;
71496;SDS011;59317;53.218;5.730;2022-11-24T04:47:22;15.82;;;2.47;;
71496;SDS011;59317;53.218;5.730;2022-11-24T04:49:48;17.05;;;2.38;;
71496;SDS011;59317;53.218;5.730;2022-11-24T04:52:15;16.33;;;2.53;;
71496;SDS011;59317;53.218;5.730;2022-11-24T04:54:41;15.35;;;2.20;;
71496;SDS011;59317;53.218;5.730;2022-11-24T04:57:10;18.92;;;2.72;;
71496;SDS011;59317;53.218;5.730;2022-11-24T04:59:40;17.02;;;2.22;;
71496;SDS011;59317;53.218;5.730;2022-11-24T05:02:07;14.57;;;2.13;;
71496;SDS011;59317;53.218;5.730;2022-11-24T05:04:33;15.32;;;2.78;;
71496;SDS011;59317;53.218;5.730;2022-11-24T05:06:59;16.10;;;2.10;;
71496;SDS011;59317;53.218;5.730;2022-11-24T05:09:25;18.75;;;2.35;;
71496;SDS011;59317;53.218;5.730;2022-11-24T05:11:51;16.55;;;2.20;;
71496;SDS011;59317;53.218;5.730;2022-11-24T05:14:17;16.50;;;2.58;;
71496;SDS011;59317;53.218;5.730;2022-11-24T05:16:42;16.70;;;2.40;;
71496;SDS011;59317;53.218;5.730;2022-11-24T05:19:08;15.65;;;2.17;;
71496;SDS011;59317;53.218;5.730;2022-11-24T05:21:35;18.50;;;2.40;;
71496;SDS011;59317;53.218;5.730;2022-11-24T05:24:01;14.13;;;1.83;;
71496;SDS011;59317;53.218;5.730;2022-11-24T05:26:27;18.15;;;2.08;;
71496;SDS011;59317;53.218;5.730;2022-11-24T05:28:53;18.70;;;2.35;;
71496;SDS011;59317;53.218;5.730;2022-11-24T05:31:19;15.45;;;2.22;;
71496;SDS011;59317;53.218;5.730;2022-11-24T05:33:45;16.13;;;2.67;;
71496;SDS011;59317;53.218;5.730;2022-11-24T05:36:11;13.13;;;1.90;;
71496;SDS011;59317;53.218;5.730;2022-11-24T05:38:57;18.43;;;2.20;;
71496;SDS011;59317;53.218;5.730;2022-11-24T05:41:23;13.48;;;2.03;;
71496;SDS011;59317;53.218;5.730;2022-11-24T05:43:49;14.50;;;1.80;;
71496;SDS011;59317;53.218;5.730;2022-11-24T05:46:15;16.50;;;1.92;;
71496;SDS011;59317;53.218;5.730;2022-11-24T05:48:41;18.35;;;1.90;;
71496;SDS011;59317;53.218;5.730;2022-11-24T05:51:07;13.93;;;1.75;;
71496;SDS011;59317;53.218;5.730;2022-11-24T05:53:33;16.98;;;1.80;;
71496;SDS011;59317;53.218;5.730;2022-11-24T05:56:02;15.00;;;1.90;;
71496;SDS011;59317;53.218;5.730;2022-11-24T05:58:28;13.38;;;2.00;;
71496;SDS011;59317;53.218;5.730;2022-11-24T06:00:54;12.93;;;2.15;;
71496;SDS011;59317;53.218;5.730;2022-11-24T06:03:20;16.55;;;2.20;;
71496;SDS011;59317;53.218;5.730;2022-11-24T06:05:46;17.53;;;2.50;;
71496;SDS011;59317;53.218;5.730;2022-11-24T06:08:12;16.90;;;2.10;;
71496;SDS011;59317;53.218;5.730;2022-11-24T06:10:38;15.63;;;2.45;;
71496;SDS011;59317;53.218;5.730;2022-11-24T06:13:05;17.80;;;2.57;;
71496;SDS011;59317;53.218;5.730;2022-11-24T06:15:31;17.52;;;2.33;;
71496;SDS011;59317;53.218;5.730;2022-11-24T06:17:57;18.73;;;2.78;;
71496;SDS011;59317;53.218;5.730;2022-11-24T06:20:23;14.30;;;2.40;;
71496;SDS011;59317;53.218;5.730;2022-11-24T06:22:49;15.73;;;2.88;;
71496;SDS011;59317;53.218;5.730;2022-11-24T06:25:15;14.70;;;2.13;;
71496;SDS011;59317;53.218;5.730;2022-11-24T06:27:42;15.23;;;2.17;;
71496;SDS011;59317;53.218;5.730;2022-11-24T06:30:08;12.48;;;1.95;;
71496;SDS011;59317;53.218;5.730;2022-11-24T06:32:34;12.85;;;2.17;;
71496;SDS011;59317;53.218;5.730;2022-11-24T06:35:00;16.65;;;2.53;;
71496;SDS011;59317;53.218;5.730;2022-11-24T06:37:26;17.08;;;2.20;;
71496;SDS011;59317;53.218;5.730;2022-11-24T06:39:52;17.17;;;2.15;;
71496;SDS011;59317;53.218;5.730;2022-11-24T06:42:18;15.75;;;2.25;;
71496;SDS011;59317;53.218;5.730;2022-11-24T06:44:45;15.60;;;2.37;;
71496;SDS011;59317;53.218;5.730;2022-11-24T06:47:11;17.33;;;2.60;;
71496;SDS011;59317;53.218;5.730;2022-11-24T06:49:38;16.13;;;1.90;;
71496;SDS011;59317;53.218;5.730;2022-11-24T06:52:04;14.30;;;2.20;;
71496;SDS011;59317;53.218;5.730;2022-11-24T06:54:30;12.88;;;2.33;;
71496;SDS011;59317;53.218;5.730;2022-11-24T06:56:56;10.35;;;1.55;;
71496;SDS011;59317;53.218;5.730;2022-11-24T06:59:23;12.13;;;1.85;;
71496;SDS011;59317;53.218;5.730;2022-11-24T07:01:50;9.93;;;1.65;;
71496;SDS011;59317;53.218;5.730;2022-11-24T07:04:16;12.60;;;1.40;;
71496;SDS011;59317;53.218;5.730;2022-11-24T07:06:42;13.73;;;1.75;;
71496;SDS011;59317;53.218;5.730;2022-11-24T07:09:08;12.40;;;1.80;;
71496;SDS011;59317;53.218;5.730;2022-11-24T07:11:35;16.55;;;2.10;;
71496;SDS011;59317;53.218;5.730;2022-11-24T07:14:01;11.30;;;1.60;;
71496;SDS011;59317;53.218;5.730;2022-11-24T07:16:27;11.00;;;1.38;;
71496;SDS011;59317;53.218;5.730;2022-11-24T07:18:53;15.93;;;1.67;;
71496;SDS011;59317;53.218;5.730;2022-11-24T07:21:19;13.30;;;1.90;;
71496;SDS011;59317;53.218;5.730;2022-11-24T07:23:52;11.82;;;1.33;;
71496;SDS011;59317;53.218;5.730;2022-11-24T07:26:18;12.23;;;1.80;;
71496;SDS011;59317;53.218;5.730;2022-11-24T07:28:45;12.75;;;1.60;;
71496;SDS011;59317;53.218;5.730;2022-11-24T07:31:12;13.20;;;1.63;;
71496;SDS011;59317;53.218;5.730;2022-11-24T07:33:38;12.68;;;2.13;;
71496;SDS011;59317;53.218;5.730;2022-11-24T07:36:05;9.52;;;1.75;;
71496;SDS011;59317;53.218;5.730;2022-11-24T07:38:31;14.82;;;1.88;;
71496;SDS011;59317;53.218;5.730;2022-11-24T07:41:01;11.63;;;1.60;;
71496;SDS011;59317;53.218;5.730;2022-11-24T07:43:27;12.43;;;1.70;;
71496;SDS011;59317;53.218;5.730;2022-11-24T07:45:53;9.18;;;1.80;;
71496;SDS011;59317;53.218;5.730;2022-11-24T07:48:19;13.05;;;1.77;;
71496;SDS011;59317;53.218;5.730;2022-11-24T07:50:45;8.70;;;1.45;;
71496;SDS011;59317;53.218;5.730;2022-11-24T07:53:11;11.05;;;1.70;;
71496;SDS011;59317;53.218;5.730;2022-11-24T07:55:37;8.17;;;1.47;;
71496;SDS011;59317;53.218;5.730;2022-11-24T07:58:03;12.07;;;1.50;;
71496;SDS011;59317;53.218;5.730;2022-11-24T08:00:29;13.53;;;1.70;;
71496;SDS011;59317;53.218;5.730;2022-11-24T08:02:55;11.82;;;1.50;;
71496;SDS011;59317;53.218;5.730;2022-11-24T08:05:21;11.80;;;1.50;;
71496;SDS011;59317;53.218;5.730;2022-11-24T08:07:47;11.63;;;1.60;;
71496;SDS011;59317;53.218;5.730;2022-11-24T08:10:13;8.85;;;1.38;;
71496;SDS011;59317;53.218;5.730;2022-11-24T08:12:39;12.25;;;1.50;;
71496;SDS011;59317;53.218;5.730;2022-11-24T08:15:06;10.10;;;1.25;;
71496;SDS011;59317;53.218;5.730;2022-11-24T08:17:32;12.90;;;2.00;;
71496;SDS011;59317;53.218;5.730;2022-11-24T08:19:58;13.25;;;1.70;;
71496;SDS011;59317;53.218;5.730;2022-11-24T08:22:24;11.50;;;1.40;;
71496;SDS011;59317;53.218;5.730;2022-11-24T08:24:50;10.17;;;1.20;;
71496;SDS011;59317;53.218;5.730;2022-11-24T08:27:17;13.60;;;1.80;;
71496;SDS011;59317;53.218;5.730;2022-11-24T08:29:43;11.48;;;1.60;;
71496;SDS011;59317;53.218;5.730;2022-11-24T08:32:09;9.90;;;1.45;;
71496;SDS011;59317;53.218;5.730;2022-11-24T08:34:36;8.32;;;1.30;;
71496;SDS011;59317;53.218;5.730;2022-11-24T08:37:03;11.15;;;1.38;;
71496;SDS011;59317;53.218;5.730;2022-11-24T08:39:29;13.20;;;2.10;;
71496;SDS011;59317;53.218;5.730;2022-11-24T08:41:55;10.77;;;1.80;;
71496;SDS011;59317;53.218;5.730;2022-11-24T08:44:21;10.32;;;2.10;;
71496;SDS011;59317;53.218;5.730;2022-11-24T08:46:47;10.63;;;1.90;;
71496;SDS011;59317;53.218;5.730;2022-11-24T08:49:14;11.45;;;2.20;;
71496;SDS011;59317;53.218;5.730;2022-11-24T08:51:40;10.35;;;2.08;;
71496;SDS011;59317;53.218;5.730;2022-11-24T08:54:07;10.23;;;1.90;;
71496;SDS011;59317;53.218;5.730;2022-11-24T08:56:34;12.70;;;1.70;;
71496;SDS011;59317;53.218;5.730;2022-11-24T08:59:00;9.13;;;1.47;;
71496;SDS011;59317;53.218;5.730;2022-11-24T09:01:26;7.70;;;1.38;;
71496;SDS011;59317;53.218;5.730;2022-11-24T09:03:52;10.05;;;1.70;;
71496;SDS011;59317;53.218;5.730;2022-11-24T09:06:20;9.30;;;1.25;;
71496;SDS011;59317;53.218;5.730;2022-11-24T09:08:55;8.75;;;1.20;;
71496;SDS011;59317;53.218;5.730;2022-11-24T09:11:22;8.10;;;1.17;;
71496;SDS011;59317;53.218;5.730;2022-11-24T09:13:48;8.27;;;1.10;;
71496;SDS011;59317;53.218;5.730;2022-11-24T09:16:16;8.48;;;1.33;;
71496;SDS011;59317;53.218;5.730;2022-11-24T09:18:42;11.13;;;1.40;;
71496;SDS011;59317;53.218;5.730;2022-11-24T09:21:12;9.57;;;1.23;;
71496;SDS011;59317;53.218;5.730;2022-11-24T09:23:39;7.97;;;1.00;;
71496;SDS011;59317;53.218;5.730;2022-11-24T09:26:13;9.02;;;1.20;;
71496;SDS011;59317;53.218;5.730;2022-11-24T09:28:39;10.73;;;1.20;;
71496;SDS011;59317;53.218;5.730;2022-11-24T09:31:07;7.55;;;1.00;;
71496;SDS011;59317;53.218;5.730;2022-11-24T09:33:33;7.47;;;1.03;;
71496;SDS011;59317;53.218;5.730;2022-11-24T09:35:59;8.30;;;0.90;;
71496;SDS011;59317;53.218;5.730;2022-11-24T09:38:26;8.27;;;1.08;;
71496;SDS011;59317;53.218;5.730;2022-11-24T09:40:52;7.82;;;0.90;;
71496;SDS011;59317;53.218;5.730;2022-11-24T09:43:22;8.45;;;1.00;;
71496;SDS011;59317;53.218;5.730;2022-11-24T09:48:33;7.70;;;1.30;;
71496;SDS011;59317;53.218;5.730;2022-11-24T09:51:00;8.00;;;1.27;;
71496;SDS011;59317;53.218;5.730;2022-11-24T09:55:56;8.55;;;1.35;;
71496;SDS011;59317;53.218;5.730;2022-11-24T10:00:52;11.13;;;1.50;;
71496;SDS011;59317;53.218;5.730;2022-11-24T10:03:21;10.60;;;1.55;;
71496;SDS011;59317;53.218;5.730;2022-11-24T10:05:48;8.50;;;1.50;;
71496;SDS011;59317;53.218;5.730;2022-11-24T10:10:57;8.80;;;1.45;;
71496;SDS011;59317;53.218;5.730;2022-11-24T10:16:03;10.75;;;1.80;;
71496;SDS011;59317;53.218;5.730;2022-11-24T10:18:54;9.20;;;1.77;;
71496;SDS011;59317;53.218;5.730;2022-11-24T10:21:46;11.03;;;2.10;;
71496;SDS011;59317;53.218;5.730;2022-11-24T10:29:40;7.72;;;2.03;;
71496;SDS011;59317;53.218;5.730;2022-11-24T10:32:51;10.83;;;2.33;;
71496;SDS011;59317;53.218;5.730;2022-11-24T10:34:52;10.47;;;2.30;;
71496;SDS011;59317;53.218;5.730;2022-11-24T10:39:55;9.90;;;2.80;;
71496;SDS011;59317;53.218;5.730;2022-11-24T10:42:27;10.17;;;3.07;;
71496;SDS011;59317;53.218;5.730;2022-11-24T10:45:13;14.43;;;3.42;;
71496;SDS011;59317;53.218;5.730;2022-11-24T10:47:40;11.73;;;3.23;;
71496;SDS011;59317;53.218;5.730;2022-11-24T10:50:23;11.10;;;3.53;;
71496;SDS011;59317;53.218;5.730;2022-11-24T10:52:59;10.90;;;3.40;;
71496;SDS011;59317;53.218;5.730;2022-11-24T10:55:51;11.15;;;3.88;;
71496;SDS011;59317;53.218;5.730;2022-11-24T10:58:15;11.75;;;3.70;;
71496;SDS011;59317;53.218;5.730;2022-11-24T11:00:41;11.43;;;4.00;;
71496;SDS011;59317;53.218;5.730;2022-11-24T11:03:14;10.45;;;3.75;;
71496;SDS011;59317;53.218;5.730;2022-11-24T11:05:41;12.13;;;3.50;;
71496;SDS011;59317;53.218;5.730;2022-11-24T11:08:10;11.68;;;3.60;;
71496;SDS011;59317;53.218;5.730;2022-11-24T11:10:40;11.50;;;3.70;;
71496;SDS011;59317;53.218;5.730;2022-11-24T11:13:22;10.27;;;3.40;;
71496;SDS011;59317;53.218;5.730;2022-11-24T11:15:48;12.45;;;3.63;;
71496;SDS011;59317;53.218;5.730;2022-11-24T11:18:15;11.82;;;3.08;;
71496;SDS011;59317;53.218;5.730;2022-11-24T11:20:48;11.15;;;3.25;;
71496;SDS011;59317;53.218;5.730;2022-11-24T11:23:15;9.80;;;3.17;;
71496;SDS011;59317;53.218;5.730;2022-11-24T11:25:45;10.68;;;3.33;;
71496;SDS011;59317;53.218;5.730;2022-11-24T11:28:25;10.33;;;3.27;;
71496;SDS011;59317;53.218;5.730;2022-11-24T11:30:56;13.23;;;3.30;;
71496;SDS011;59317;53.218;5.730;2022-11-24T11:33:26;12.48;;;3.10;;
71496;SDS011;59317;53.218;5.730;2022-11-24T11:35:53;12.57;;;2.65;;
71496;SDS011;59317;53.218;5.730;2022-11-24T11:38:19;12.07;;;2.75;;
71496;SDS011;59317;53.218;5.730;2022-11-24T11:40:47;13.38;;;2.80;;
71496;SDS011;59317;53.218;5.730;2022-11-24T11:45:44;11.18;;;2.95;;
71496;SDS011;59317;53.218;5.730;2022-11-24T11:48:25;10.82;;;2.78;;
71496;SDS011;59317;53.218;5.730;2022-11-24T11:50:53;13.37;;;2.80;;
71496;SDS011;59317;53.218;5.730;2022-11-24T11:53:27;15.55;;;3.45;;
71496;SDS011;59317;53.218;5.730;2022-11-24T11:56:00;12.73;;;3.22;;
71496;SDS011;59317;53.218;5.730;2022-11-24T12:01:12;12.27;;;2.50;;
71496;SDS011;59317;53.218;5.730;2022-11-24T12:14:26;11.02;;;2.30;;
71496;SDS011;59317;53.218;5.730;2022-11-24T12:27:11;10.70;;;2.70;;
71496;SDS011;59317;53.218;5.730;2022-11-24T12:43:21;13.40;;;2.42;;
71496;SDS011;59317;53.218;5.730;2022-11-24T12:45:57;14.07;;;2.38;;
71496;SDS011;59317;53.218;5.730;2022-11-24T12:48:44;12.23;;;2.40;;
71496;SDS011;59317;53.218;5.730;2022-11-24T12:51:18;15.68;;;2.40;;
71496;SDS011;59317;53.218;5.730;2022-11-24T12:53:48;13.15;;;2.47;;
71496;SDS011;59317;53.218;5.730;2022-11-24T12:56:16;14.98;;;2.53;;
71496;SDS011;59317;53.218;5.730;2022-11-24T13:03:57;14.57;;;2.30;;
71496;SDS011;59317;53.218;5.730;2022-11-24T13:06:29;15.88;;;2.08;;
71496;SDS011;59317;53.218;5.730;2022-11-24T13:09:06;16.88;;;2.05;;
71496;SDS011;59317;53.218;5.730;2022-11-24T13:16:31;12.65;;;1.83;;
71496;SDS011;59317;53.218;5.730;2022-11-24T13:18:57;13.90;;;1.98;;
71496;SDS011;59317;53.218;5.730;2022-11-24T13:24:19;16.95;;;2.45;;
71496;SDS011;59317;53.218;5.730;2022-11-24T13:29:34;13.02;;;1.75;;
71496;SDS011;59317;53.218;5.730;2022-11-24T13:39:51;14.98;;;2.10;;
71496;SDS011;59317;53.218;5.730;2022-11-24T13:42:17;16.73;;;2.27;;
71496;SDS011;59317;53.218;5.730;2022-11-24T13:49:54;14.07;;;1.80;;
71496;SDS011;59317;53.218;5.730;2022-11-24T13:57:37;16.92;;;2.10;;
71496;SDS011;59317;53.218;5.730;2022-11-24T14:00:14;15.38;;;1.83;;
71496;SDS011;59317;53.218;5.730;2022-11-24T14:02:42;16.02;;;1.80;;
71496;SDS011;59317;53.218;5.730;2022-11-24T14:05:12;16.20;;;2.13;;
71496;SDS011;59317;53.218;5.730;2022-11-24T14:07:42;17.80;;;1.90;;
71496;SDS011;59317;53.218;5.730;2022-11-24T14:10:15;15.65;;;1.88;;
71496;SDS011;59317;53.218;5.730;2022-11-24T14:12:43;15.93;;;1.67;;
71496;SDS011;59317;53.218;5.730;2022-11-24T14:18:20;15.23;;;1.87;;
71496;SDS011;59317;53.218;5.730;2022-11-24T14:20:46;16.13;;;1.85;;
71496;SDS011;59317;53.218;5.730;2022-11-24T14:23:12;15.40;;;1.92;;
71496;SDS011;59317;53.218;5.730;2022-11-24T14:25:38;15.40;;;1.88;;
71496;SDS011;59317;53.218;5.730;2022-11-24T14:30:49;16.52;;;2.35;;
71496;SDS011;59317;53.218;5.730;2022-11-24T14:33:17;17.20;;;1.83;;
71496;SDS011;59317;53.218;5.730;2022-11-24T14:35:44;14.50;;;1.95;;
71496;SDS011;59317;53.218;5.730;2022-11-24T14:38:11;18.63;;;2.10;;
71496;SDS011;59317;53.218;5.730;2022-11-24T14:40:55;17.95;;;2.10;;
71496;SDS011;59317;53.218;5.730;2022-11-24T14:43:26;16.95;;;1.77;;
71496;SDS011;59317;53.218;5.730;2022-11-24T14:45:57;14.45;;;1.63;;
71496;SDS011;59317;53.218;5.730;2022-11-24T14:48:25;16.08;;;2.03;;
71496;SDS011;59317;53.218;5.730;2022-11-24T14:50:52;14.80;;;1.80;;
71496;SDS011;59317;53.218;5.730;2022-11-24T14:53:19;17.55;;;2.10;;
71496;SDS011;59317;53.218;5.730;2022-11-24T14:56:04;19.05;;;2.28;;
71496;SDS011;59317;53.218;5.730;2022-11-24T14:58:31;16.60;;;2.10;;
71496;SDS011;59317;53.218;5.730;2022-11-24T15:01:19;20.15;;;2.10;;
71496;SDS011;59317;53.218;5.730;2022-11-24T15:03:45;15.48;;;1.80;;
71496;SDS011;59317;53.218;5.730;2022-11-24T15:06:15;16.38;;;1.70;;
71496;SDS011;59317;53.218;5.730;2022-11-24T15:08:44;15.50;;;2.07;;
71496;SDS011;59317;53.218;5.730;2022-11-24T15:11:10;15.13;;;2.20;;
71496;SDS011;59317;53.218;5.730;2022-11-24T15:13:37;16.83;;;2.00;;
71496;SDS011;59317;53.218;5.730;2022-11-24T15:16:07;15.38;;;2.13;;
71496;SDS011;59317;53.218;5.730;2022-11-24T15:18:42;20.58;;;2.45;;
71496;SDS011;59317;53.218;5.730;2022-11-24T15:21:09;19.70;;;3.30;;
71496;SDS011;59317;53.218;5.730;2022-11-24T15:23:35;14.50;;;1.88;;
71496;SDS011;59317;53.218;5.730;2022-11-24T15:28:28;16.50;;;2.50;;
71496;SDS011;59317;53.218;5.730;2022-11-24T15:30:55;20.05;;;2.20;;
71496;SDS011;59317;53.218;5.730;2022-11-24T15:33:24;12.10;;;1.90;;
71496;SDS011;59317;53.218;5.730;2022-11-24T15:35:50;16.53;;;2.27;;
71496;SDS011;59317;53.218;5.730;2022-11-24T15:38:16;17.77;;;2.50;;
71496;SDS011;59317;53.218;5.730;2022-11-24T15:40:42;15.87;;;2.00;;
71496;SDS011;59317;53.218;5.730;2022-11-24T15:43:14;15.15;;;2.03;;
71496;SDS011;59317;53.218;5.730;2022-11-24T15:45:40;18.23;;;2.13;;
71496;SDS011;59317;53.218;5.730;2022-11-24T15:48:06;18.33;;;2.05;;
71496;SDS011;59317;53.218;5.730;2022-11-24T15:50:34;18.58;;;2.33;;
71496;SDS011;59317;53.218;5.730;2022-11-24T15:53:00;20.63;;;2.20;;
71496;SDS011;59317;53.218;5.730;2022-11-24T15:55:26;14.18;;;2.00;;
71496;SDS011;59317;53.218;5.730;2022-11-24T15:57:52;14.57;;;1.85;;
71496;SDS011;59317;53.218;5.730;2022-11-24T16:00:19;13.90;;;1.95;;
71496;SDS011;59317;53.218;5.730;2022-11-24T16:02:45;14.70;;;1.63;;
71496;SDS011;59317;53.218;5.730;2022-11-24T16:05:11;12.85;;;1.55;;
71496;SDS011;59317;53.218;5.730;2022-11-24T16:07:38;9.68;;;1.80;;
71496;SDS011;59317;53.218;5.730;2022-11-24T16:10:05;14.00;;;1.77;;
71496;SDS011;59317;53.218;5.730;2022-11-24T16:12:31;15.77;;;1.75;;
71496;SDS011;59317;53.218;5.730;2022-11-24T16:14:57;14.93;;;2.28;;
71496;SDS011;59317;53.218;5.730;2022-11-24T16:17:23;15.05;;;2.42;;
71496;SDS011;59317;53.218;5.730;2022-11-24T16:19:49;17.27;;;2.15;;
71496;SDS011;59317;53.218;5.730;2022-11-24T16:22:15;19.38;;;2.80;;
71496;SDS011;59317;53.218;5.730;2022-11-24T16:24:41;13.20;;;2.13;;